createdAt,value
2023-04-04T00:02:32.847Z,10.30
2023-04-04T00:05:02.890Z,10.00
2023-04-04T00:07:32.258Z,10.10
2023-04-04T00:10:03.012Z,10.40
2023-04-04T00:12:39.790Z,10.40
2023-04-04T00:15:12.998Z,10.40
2023-04-04T00:17:41.175Z,10.60
2023-04-04T00:20:21.526Z,10.90
2023-04-04T00:22:56.307Z,11.00
2023-04-04T00:25:30.222Z,10.70
2023-04-04T00:28:04.415Z,10.10
2023-04-04T00:30:38.333Z,10.30
2023-04-04T00:33:12.288Z,10.50
2023-04-04T00:35:46.525Z,10.30
2023-04-04T00:38:15.813Z,10.30
2023-04-04T00:40:44.821Z,10.40
2023-04-04T00:43:19.779Z,10.70
2023-04-04T00:45:53.722Z,10.80
2023-04-04T00:48:28.062Z,10.50
2023-04-04T00:50:56.870Z,10.60
2023-04-04T00:53:38.050Z,10.90
2023-04-04T00:56:10.390Z,11.00
2023-04-04T00:58:41.453Z,10.80
2023-04-04T01:01:11.976Z,10.80
2023-04-04T01:03:45.962Z,10.80
2023-04-04T01:06:15.899Z,11.10
2023-04-04T01:08:46.176Z,11.40
2023-04-04T01:11:28.181Z,11.20
2023-04-04T01:13:58.931Z,11.00
2023-04-04T01:16:42.106Z,11.20
2023-04-04T01:19:19.223Z,11.10
2023-04-04T01:21:47.758Z,11.00
2023-04-04T01:24:38.249Z,10.90
2023-04-04T01:27:07.478Z,11.10
2023-04-04T01:29:35.360Z,11.30
2023-04-04T01:32:19.549Z,10.90
2023-04-04T01:35:06.507Z,10.30
2023-04-04T01:37:37.977Z,10.20
2023-04-04T01:40:13.320Z,10.50
2023-04-04T01:42:52.120Z,9.80
2023-04-04T01:45:29.800Z,9.40
2023-04-04T01:48:03.406Z,9.30
2023-04-04T01:50:34.283Z,9.60
2023-04-04T01:53:02.499Z,9.60
2023-04-04T01:55:30.342Z,9.70
2023-04-04T01:57:59.761Z,9.80
2023-04-04T02:00:32.208Z,10.20
2023-04-04T02:03:09.296Z,10.50
2023-04-04T02:05:39.519Z,10.80
2023-04-04T02:08:09.797Z,10.90
2023-04-04T02:10:37.850Z,11.10
2023-04-04T02:13:25.054Z,11.30
2023-04-04T02:15:55.764Z,11.10
2023-04-04T02:18:37.011Z,10.80
2023-04-04T02:21:07.356Z,10.80
2023-04-04T02:23:35.267Z,11.00
2023-04-04T02:26:17.040Z,10.60
2023-04-04T02:28:49.075Z,10.30
2023-04-04T02:31:20.019Z,10.30
2023-04-04T02:33:47.838Z,10.50
2023-04-04T02:36:21.593Z,10.60
2023-04-04T02:38:52.533Z,10.50
2023-04-04T02:41:29.578Z,10.40
2023-04-04T02:43:58.863Z,10.50
2023-04-04T02:46:26.756Z,10.50
2023-04-04T02:48:57.401Z,10.20
2023-04-04T02:51:25.275Z,9.70
2023-04-04T02:53:56.219Z,9.80
2023-04-04T02:56:28.937Z,9.90
2023-04-04T02:59:02.778Z,9.70
2023-04-04T03:01:45.210Z,9.70
2023-04-04T03:04:13.693Z,9.80
2023-04-04T03:06:42.169Z,10.10
2023-04-04T03:09:16.140Z,10.00
2023-04-04T03:11:47.280Z,9.40
2023-04-04T03:14:18.783Z,9.20
2023-04-04T03:16:47.248Z,9.50
2023-04-04T03:19:18.294Z,9.80
2023-04-04T03:21:49.317Z,9.60
2023-04-04T03:24:24.066Z,9.00
2023-04-04T03:26:51.901Z,9.20
2023-04-04T03:29:41.673Z,9.50
2023-04-04T03:32:09.499Z,9.30
2023-04-04T03:34:37.324Z,9.10
2023-04-04T03:37:07.856Z,9.40
2023-04-04T03:39:41.910Z,9.70
2023-04-04T03:42:09.763Z,9.80
2023-04-04T03:44:48.461Z,10.00
2023-04-04T03:47:28.042Z,10.30
2023-04-04T03:50:01.093Z,10.50
2023-04-04T03:52:36.532Z,10.70
2023-04-04T03:55:04.518Z,10.80
2023-04-04T03:57:35.955Z,10.90
2023-04-04T04:00:08.731Z,10.90
2023-04-04T04:02:39.825Z,10.50
2023-04-04T04:05:10.858Z,10.30
2023-04-04T04:07:45.666Z,10.10
2023-04-04T04:10:16.901Z,10.30
2023-04-04T04:12:47.764Z,10.20
2023-04-04T04:15:19.520Z,10.00
2023-04-04T04:17:56.924Z,10.10
2023-04-04T04:20:43.286Z,10.30
2023-04-04T04:23:16.795Z,10.50
2023-04-04T04:25:44.648Z,10.30
2023-04-04T04:28:15.612Z,10.20
2023-04-04T04:31:13.372Z,10.30
2023-04-04T04:33:53.327Z,10.50
2023-04-04T04:36:27.417Z,10.30
2023-04-04T04:39:09.246Z,10.40
2023-04-04T04:41:38.463Z,10.60
2023-04-04T04:44:09.116Z,10.50
2023-04-04T04:46:46.366Z,10.40
2023-04-04T04:49:27.434Z,10.50
2023-04-04T04:52:02.391Z,10.70
2023-04-04T04:54:36.363Z,10.50
2023-04-04T04:57:04.262Z,10.20
2023-04-04T04:59:48.098Z,10.30
2023-04-04T05:02:32.311Z,10.50
2023-04-04T05:05:00.608Z,10.40
2023-04-04T05:07:37.930Z,10.20
2023-04-04T05:10:06.445Z,9.90
2023-04-04T05:12:34.288Z,10.20
2023-04-04T05:15:02.170Z,10.40
2023-04-04T05:17:40.723Z,10.40
2023-04-04T05:20:11.816Z,10.20
2023-04-04T05:22:46.414Z,10.30
2023-04-04T05:25:14.759Z,10.50
2023-04-04T05:27:52.604Z,10.60
2023-04-04T05:30:20.527Z,10.70
2023-04-04T05:32:51.705Z,10.80
2023-04-04T05:35:19.683Z,10.90
2023-04-04T05:37:47.684Z,10.80
2023-04-04T05:40:15.957Z,10.60
2023-04-04T05:42:55.437Z,10.60
2023-04-04T05:45:23.355Z,10.70
2023-04-04T05:47:52.624Z,10.80
2023-04-04T05:50:20.608Z,10.90
2023-04-04T05:52:54.763Z,11.10
2023-04-04T05:55:29.157Z,10.50
2023-04-04T05:57:57.474Z,10.60
2023-04-04T06:00:34.625Z,10.80
2023-04-04T06:03:16.387Z,10.60
2023-04-04T06:05:45.142Z,10.50
2023-04-04T06:08:13.057Z,10.40
2023-04-04T06:10:41.292Z,10.10
2023-04-04T06:13:14.395Z,10.00
2023-04-04T06:15:42.262Z,10.10
2023-04-04T06:18:10.165Z,9.70
2023-04-04T06:20:39.576Z,9.60
2023-04-04T06:23:16.622Z,9.60
2023-04-04T06:25:44.554Z,9.50
2023-04-04T06:28:15.787Z,9.10
2023-04-04T06:30:45.250Z,8.90
2023-04-04T06:33:26.569Z,7.40
2023-04-04T06:35:58.849Z,7.30
2023-04-04T06:38:30.394Z,7.40
2023-04-04T06:40:58.243Z,7.80
2023-04-04T06:43:30.839Z,7.80
2023-04-04T06:46:01.983Z,7.60
2023-04-04T06:48:35.729Z,7.60
2023-04-04T06:51:06.746Z,8.00
2023-04-04T06:53:35.198Z,8.00
2023-04-04T06:56:12.075Z,7.90
2023-04-04T06:58:40.106Z,7.80
2023-04-04T07:01:14.110Z,7.70
2023-04-04T07:03:44.413Z,7.40
2023-04-04T07:06:20.628Z,7.70
2023-04-04T07:08:54.538Z,8.00
2023-04-04T07:11:23.685Z,8.00
2023-04-04T07:13:57.710Z,8.00
2023-04-04T07:16:25.710Z,7.80
2023-04-04T07:18:59.667Z,7.80
2023-04-04T07:21:33.848Z,7.90
2023-04-04T07:24:02.393Z,8.30
2023-04-04T07:26:33.943Z,8.40
2023-04-04T07:29:04.634Z,8.50
2023-04-04T07:31:38.673Z,8.40
2023-04-04T07:34:09.704Z,8.00
2023-04-04T07:36:38.831Z,7.70
2023-04-04T07:39:18.605Z,7.70
2023-04-04T07:41:46.586Z,7.80
2023-04-04T07:44:14.386Z,7.80
2023-04-04T07:46:42.609Z,8.10
2023-04-04T07:49:16.747Z,8.50
2023-04-04T07:51:45.966Z,8.60
2023-04-04T07:54:15.879Z,8.50
2023-04-04T07:56:43.712Z,8.50
2023-04-04T07:59:14.448Z,8.40
2023-04-04T08:01:44.661Z,8.10
2023-04-04T08:04:16.864Z,8.40
2023-04-04T08:06:54.438Z,8.70
2023-04-04T08:09:25.867Z,8.60
2023-04-04T08:12:01.301Z,8.40
2023-04-04T08:14:29.354Z,8.30
2023-04-04T08:17:08.139Z,8.20
2023-04-04T08:19:42.123Z,8.40
2023-04-04T08:22:13.854Z,8.80
2023-04-04T08:24:41.806Z,8.50
2023-04-04T08:27:14.869Z,8.40
2023-04-04T08:29:46.837Z,8.10
2023-04-04T08:32:20.575Z,8.00
2023-04-04T08:34:54.669Z,8.20
2023-04-04T08:37:26.679Z,8.40
2023-04-04T08:40:01.566Z,8.50
2023-04-04T08:42:32.266Z,8.70
2023-04-04T08:45:09.438Z,8.80
2023-04-04T08:47:39.680Z,8.50
2023-04-04T08:50:10.965Z,8.40
2023-04-04T08:52:46.158Z,8.60
2023-04-04T08:55:14.330Z,8.70
2023-04-04T08:57:42.282Z,8.80
2023-04-04T09:00:11.096Z,9.10
2023-04-04T09:02:49.511Z,9.00
2023-04-04T09:05:18.297Z,8.90
2023-04-04T09:07:52.331Z,8.70
2023-04-04T09:10:23.387Z,8.40
2023-04-04T09:13:02.186Z,8.30
2023-04-04T09:15:54.062Z,8.20
2023-04-04T09:18:21.986Z,7.60
2023-04-04T09:20:53.178Z,7.50
2023-04-04T09:23:23.678Z,7.40
2023-04-04T09:26:03.655Z,7.50
2023-04-04T09:28:36.668Z,7.80
2023-04-04T09:31:09.982Z,7.50
2023-04-04T09:33:40.011Z,7.40
2023-04-04T09:36:12.606Z,7.40
2023-04-04T09:38:45.321Z,7.50
2023-04-04T09:41:16.564Z,7.50
2023-04-04T09:43:54.601Z,7.60
2023-04-04T09:46:23.365Z,7.60
2023-04-04T09:48:51.734Z,7.70
2023-04-04T09:51:22.750Z,7.70
2023-04-04T09:53:54.731Z,7.60
2023-04-04T09:56:40.277Z,7.70
2023-04-04T09:59:14.013Z,7.90
2023-04-04T10:01:42.150Z,8.20
2023-04-04T10:04:10.960Z,8.20
2023-04-04T10:06:46.086Z,8.10
2023-04-04T10:09:20.966Z,8.50
2023-04-04T10:12:08.716Z,8.40
2023-04-04T10:14:39.335Z,8.20
2023-04-04T10:17:11.078Z,8.20
2023-04-04T10:19:39.306Z,8.20
2023-04-04T10:22:13.065Z,8.00
2023-04-04T10:24:54.673Z,7.90
2023-04-04T10:27:39.034Z,7.60
2023-04-04T10:30:08.728Z,8.20
2023-04-04T10:32:45.785Z,8.20
2023-04-04T10:35:23.567Z,8.90
2023-04-04T10:38:01.955Z,8.60
2023-04-04T10:40:38.720Z,8.30
2023-04-04T10:43:12.214Z,8.30
2023-04-04T10:45:42.531Z,8.00
2023-04-04T10:48:13.670Z,8.30
2023-04-04T10:50:42.333Z,8.20
2023-04-04T10:53:10.508Z,8.20
2023-04-04T10:55:44.625Z,8.00
2023-04-04T10:58:13.045Z,8.20
2023-04-04T11:01:00.761Z,8.20
2023-04-04T11:03:34.976Z,7.70
2023-04-04T11:06:18.284Z,7.70
2023-04-04T11:08:55.853Z,8.10
2023-04-04T11:11:31.896Z,8.50
2023-04-04T11:14:12.518Z,8.60
2023-04-04T11:16:57.593Z,8.60
2023-04-04T11:19:25.828Z,8.40
2023-04-04T11:21:58.615Z,8.30
2023-04-04T11:24:34.523Z,8.10
2023-04-04T11:27:14.492Z,8.10
2023-04-04T11:29:59.587Z,8.10
2023-04-04T11:32:59.775Z,8.80
2023-04-04T11:35:34.373Z,9.00
2023-04-04T11:38:03.604Z,9.10
2023-04-04T11:40:40.089Z,9.10
2023-04-04T11:43:13.393Z,9.50
2023-04-04T11:45:48.802Z,9.40
2023-04-04T11:48:18.787Z,9.10
2023-04-04T11:50:55.988Z,9.60
2023-04-04T11:53:26.892Z,9.40
2023-04-04T11:55:56.461Z,9.50
2023-04-04T11:58:28.476Z,9.80
2023-04-04T12:00:56.698Z,10.00
2023-04-04T12:03:27.579Z,10.10
2023-04-04T12:05:55.801Z,10.30
2023-04-04T12:08:26.752Z,10.50
2023-04-04T12:11:06.502Z,10.80
2023-04-04T12:13:44.621Z,10.50
2023-04-04T12:16:12.862Z,10.00
2023-04-04T12:18:50.333Z,9.80
2023-04-04T12:21:18.489Z,9.70
2023-04-04T12:23:48.423Z,9.50
2023-04-04T12:26:16.703Z,9.50
2023-04-04T12:28:49.068Z,9.40
2023-04-04T12:31:17.762Z,9.40
2023-04-04T12:33:45.710Z,9.40
2023-04-04T12:36:13.668Z,9.70
2023-04-04T12:38:57.703Z,9.90
2023-04-04T12:41:28.625Z,9.90
2023-04-04T12:44:08.452Z,10.10
2023-04-04T12:46:38.649Z,10.30
2023-04-04T12:49:08.229Z,10.20
2023-04-04T12:51:45.936Z,10.30
2023-04-04T12:54:48.801Z,10.30
2023-04-04T12:57:20.369Z,10.60
2023-04-04T12:59:49.897Z,11.50
2023-04-04T13:02:24.797Z,11.90
2023-04-04T13:05:15.433Z,11.40
2023-04-04T13:07:45.805Z,10.70
2023-04-04T13:10:21.337Z,10.40
2023-04-04T13:13:00.171Z,10.30
2023-04-04T13:15:56.596Z,10.60
2023-04-04T13:18:35.444Z,10.30
2023-04-04T13:21:09.138Z,10.30
2023-04-04T13:23:43.144Z,10.20
2023-04-04T13:26:11.672Z,10.30
2023-04-04T13:28:48.263Z,10.30
2023-04-04T13:31:20.166Z,10.10
2023-04-04T13:33:52.915Z,10.00
2023-04-04T13:36:20.790Z,10.10
2023-04-04T13:38:54.865Z,10.50
2023-04-04T13:41:23.188Z,10.60
2023-04-04T13:43:54.152Z,10.00
2023-04-04T13:46:23.555Z,9.80
2023-04-04T13:48:51.446Z,10.00
2023-04-04T13:51:19.275Z,10.30
2023-04-04T13:53:47.151Z,10.70
2023-04-04T13:56:22.140Z,10.60
2023-04-04T13:58:56.392Z,10.40
2023-04-04T14:01:42.828Z,10.30
2023-04-04T14:04:23.243Z,10.30
2023-04-04T14:06:57.733Z,10.50
2023-04-04T14:09:31.300Z,10.10
2023-04-04T14:12:05.473Z,10.10
2023-04-04T14:14:35.557Z,10.10
2023-04-04T14:17:08.781Z,10.20
2023-04-04T14:19:39.857Z,10.30
2023-04-04T14:22:07.950Z,10.70
2023-04-04T14:24:47.820Z,10.30
2023-04-04T14:27:18.684Z,10.00
2023-04-04T14:29:46.627Z,10.30
2023-04-04T14:32:21.767Z,10.60
2023-04-04T14:34:52.432Z,11.30
2023-04-04T14:37:22.532Z,11.00
2023-04-04T14:39:52.843Z,10.60
2023-04-04T14:42:21.553Z,10.00
2023-04-04T14:44:52.582Z,10.20
2023-04-04T14:47:27.554Z,10.40
2023-04-04T14:50:01.344Z,10.60
2023-04-04T14:52:34.446Z,10.80
2023-04-04T14:55:02.296Z,10.80
2023-04-04T14:57:39.395Z,10.60
2023-04-04T15:00:23.779Z,10.60
2023-04-04T15:02:53.437Z,10.70
2023-04-04T15:05:25.829Z,10.50
2023-04-04T15:08:02.411Z,10.40
2023-04-04T15:10:32.228Z,10.30
2023-04-04T15:13:00.167Z,10.30
2023-04-04T15:15:31.374Z,10.20
2023-04-04T15:18:00.698Z,10.50
2023-04-04T15:20:28.594Z,10.60
2023-04-04T15:22:56.451Z,10.90
2023-04-04T15:25:31.203Z,11.10
2023-04-04T15:28:01.908Z,11.00
2023-04-04T15:30:30.917Z,10.80
2023-04-04T15:33:10.613Z,10.60
2023-04-04T15:35:45.897Z,10.50
2023-04-04T15:38:13.772Z,10.20
2023-04-04T15:40:43.797Z,10.00
2023-04-04T15:43:11.673Z,10.00
2023-04-04T15:45:46.615Z,10.00
2023-04-04T15:48:15.855Z,9.80
2023-04-04T15:50:49.874Z,9.90
2023-04-04T15:53:18.211Z,9.90
2023-04-04T15:55:46.073Z,10.10
2023-04-04T15:58:21.173Z,10.40
2023-04-04T16:00:52.037Z,10.50
2023-04-04T16:03:25.767Z,10.90
2023-04-04T16:05:56.861Z,11.10
2023-04-04T16:08:27.558Z,11.20
2023-04-04T16:10:58.518Z,11.10
2023-04-04T16:13:27.449Z,11.00
2023-04-04T16:15:56.529Z,11.30
2023-04-04T16:18:25.892Z,11.80
2023-04-04T16:20:53.794Z,12.10
2023-04-04T16:23:21.809Z,11.80
2023-04-04T16:25:49.680Z,11.10
2023-04-04T16:28:23.425Z,11.10
2023-04-04T16:30:51.376Z,11.00
2023-04-04T16:33:19.451Z,10.70
2023-04-04T16:36:00.962Z,10.70
2023-04-04T16:38:35.044Z,11.40
2023-04-04T16:41:06.238Z,11.30
2023-04-04T16:43:44.448Z,11.60
2023-04-04T16:46:15.419Z,11.70
2023-04-04T16:48:46.480Z,11.80
2023-04-04T16:51:31.676Z,12.10
2023-04-04T16:54:10.989Z,12.00
2023-04-04T16:56:42.061Z,11.80
2023-04-04T16:59:17.307Z,11.60
2023-04-04T17:01:48.790Z,11.40
2023-04-04T17:04:22.738Z,11.60
2023-04-04T17:06:55.072Z,11.70
2023-04-04T17:09:26.402Z,11.90
2023-04-04T17:11:59.591Z,12.00
2023-04-04T17:14:39.869Z,11.80
2023-04-04T17:17:07.809Z,11.80
2023-04-04T17:19:41.081Z,11.90
2023-04-04T17:22:10.280Z,12.00
2023-04-04T17:24:41.020Z,12.20
2023-04-04T17:27:12.234Z,12.50
2023-04-04T17:29:40.162Z,12.50
2023-04-04T17:32:08.134Z,12.30
2023-04-04T17:34:36.036Z,12.30
2023-04-04T17:37:10.935Z,12.30
2023-04-04T17:39:52.239Z,11.90
2023-04-04T17:42:30.261Z,11.60
2023-04-04T17:44:59.532Z,11.70
2023-04-04T17:47:40.373Z,11.90
2023-04-04T17:50:09.108Z,12.40
2023-04-04T17:52:40.036Z,12.40
2023-04-04T17:55:12.979Z,12.10
2023-04-04T17:57:49.986Z,11.70
2023-04-04T18:00:18.496Z,11.60
2023-04-04T18:02:52.396Z,11.50
2023-04-04T18:05:20.616Z,11.60
2023-04-04T18:07:48.466Z,11.90
2023-04-04T18:10:41.581Z,12.20
2023-04-04T18:13:12.575Z,12.70
2023-04-04T18:15:53.884Z,12.60
2023-04-04T18:18:22.212Z,12.60
2023-04-04T18:21:08.285Z,12.80
2023-04-04T18:23:56.573Z,13.00
2023-04-04T18:26:28.942Z,12.80
2023-04-04T18:28:59.910Z,13.00
2023-04-04T18:31:28.110Z,13.50
2023-04-04T18:33:56.715Z,13.70
2023-04-04T18:36:24.580Z,14.00
2023-04-04T18:38:52.443Z,14.50
2023-04-04T18:44:13.713Z,14.80
2023-04-04T18:46:46.907Z,15.00
2023-04-04T18:49:17.528Z,15.00
2023-04-04T18:51:48.605Z,14.90
2023-04-04T18:54:19.293Z,15.10
2023-04-04T18:56:53.605Z,14.90
2023-04-04T18:59:24.074Z,15.10
2023-04-04T19:01:53.874Z,15.30
2023-04-04T19:04:24.767Z,15.10
2023-04-04T19:07:03.702Z,14.90
2023-04-04T19:09:44.225Z,14.80
2023-04-04T19:12:12.098Z,14.80
2023-04-04T19:14:56.202Z,15.00
2023-04-04T19:17:29.375Z,15.10
2023-04-04T19:20:03.202Z,15.40
2023-04-04T19:22:33.885Z,15.60
2023-04-04T19:25:08.934Z,15.40
2023-04-04T19:27:39.139Z,15.40
2023-04-04T19:30:34.506Z,15.30
2023-04-04T19:33:10.718Z,15.20
2023-04-04T19:35:55.451Z,15.30
2023-04-04T19:38:30.818Z,15.20
2023-04-04T19:41:04.714Z,15.10
2023-04-04T19:43:32.609Z,15.20
2023-04-04T19:46:11.703Z,15.30
2023-04-04T19:48:43.612Z,15.30
2023-04-04T19:51:33.251Z,15.20
2023-04-04T19:54:06.456Z,15.20
2023-04-04T19:56:37.265Z,15.30
2023-04-04T19:59:09.866Z,15.30
2023-04-04T20:01:50.508Z,15.40
2023-04-04T20:04:30.870Z,15.40
2023-04-04T20:06:58.764Z,15.50
2023-04-04T20:09:34.545Z,15.60
2023-04-04T20:12:02.508Z,15.40
2023-04-04T20:14:36.621Z,15.30
2023-04-04T20:17:12.544Z,15.30
2023-04-04T20:19:40.400Z,15.20
2023-04-04T20:22:08.567Z,15.10
2023-04-04T20:24:36.792Z,15.20
2023-04-04T20:27:07.817Z,15.20
2023-04-04T20:29:41.679Z,15.20
2023-04-04T20:32:14.011Z,15.10
2023-04-04T20:34:42.841Z,15.20
2023-04-04T20:37:16.082Z,15.20
2023-04-04T20:39:49.143Z,15.20
2023-04-04T20:42:39.952Z,15.30
2023-04-04T20:45:37.101Z,15.10
2023-04-04T20:48:08.692Z,15.00
2023-04-04T20:50:45.010Z,14.80
2023-04-04T20:53:27.473Z,14.80
2023-04-04T20:55:58.044Z,14.90
2023-04-04T20:58:30.453Z,15.00
2023-04-04T21:01:09.004Z,15.00
2023-04-04T21:03:41.859Z,15.20
2023-04-04T21:06:15.961Z,14.90
2023-04-04T21:08:45.872Z,14.80
2023-04-04T21:11:28.855Z,14.80
2023-04-04T21:13:57.682Z,14.90
2023-04-04T21:16:27.480Z,14.70
2023-04-04T21:19:03.015Z,14.70
2023-04-04T21:21:39.860Z,14.80
2023-04-04T21:24:14.744Z,14.90
2023-04-04T21:26:43.628Z,14.70
2023-04-04T21:29:21.886Z,14.60
2023-04-04T21:31:52.460Z,14.60
2023-04-04T21:34:23.104Z,14.50
2023-04-04T21:37:01.292Z,14.40
2023-04-04T21:39:36.740Z,14.30
2023-04-04T21:42:09.055Z,14.50
2023-04-04T21:44:38.391Z,14.30
2023-04-04T21:47:09.266Z,14.00
2023-04-04T21:49:44.421Z,13.90
2023-04-04T21:52:12.597Z,13.60
2023-04-04T21:54:42.615Z,13.50
2023-04-04T21:57:11.328Z,13.50
2023-04-04T21:59:42.243Z,13.80
2023-04-04T22:02:10.269Z,14.10
2023-04-04T22:04:40.666Z,14.10
2023-04-04T22:07:15.364Z,14.10
2023-04-04T22:09:43.211Z,14.10
2023-04-04T22:12:14.655Z,14.20
2023-04-04T22:14:43.725Z,14.40
2023-04-04T22:17:32.234Z,14.60
2023-04-04T22:20:00.655Z,14.60
2023-04-04T22:22:36.915Z,14.30
2023-04-04T22:25:09.010Z,14.30
2023-04-04T22:27:42.744Z,14.20
2023-04-04T22:30:11.248Z,14.40
2023-04-04T22:32:46.742Z,14.50
2023-04-04T22:35:27.954Z,14.40
2023-04-04T22:38:00.963Z,14.40
2023-04-04T22:40:32.995Z,14.40
2023-04-04T22:43:03.122Z,14.30
2023-04-04T22:45:34.358Z,14.30
2023-04-04T22:48:03.588Z,14.40
2023-04-04T22:50:37.679Z,14.20
2023-04-04T22:53:14.571Z,14.10
2023-04-04T22:55:44.745Z,14.00
2023-04-04T22:58:12.610Z,13.90
2023-04-04T23:00:40.849Z,14.00
2023-04-04T23:03:08.883Z,14.20
2023-04-04T23:05:39.636Z,14.00
2023-04-04T23:10:51.121Z,13.90
2023-04-04T23:13:21.644Z,13.80
2023-04-04T23:15:52.375Z,13.90
2023-04-04T23:18:21.909Z,14.00
2023-04-04T23:20:49.853Z,14.10
2023-04-04T23:23:17.691Z,14.10
2023-04-04T23:25:49.704Z,13.90
2023-04-04T23:28:17.558Z,13.80
2023-04-04T23:30:45.513Z,13.70
2023-04-04T23:33:15.688Z,13.90
2023-04-04T23:35:43.546Z,14.00
2023-04-04T23:38:13.378Z,13.70
2023-04-04T23:40:41.521Z,13.80
2023-04-04T23:43:10.994Z,13.90
2023-04-04T23:45:41.241Z,13.90
2023-04-04T23:48:09.157Z,14.10
2023-04-04T23:50:37.970Z,14.10
2023-04-04T23:53:11.968Z,14.10
2023-04-04T23:55:39.848Z,14.00
2023-04-04T23:58:12.279Z,13.90
